Elena Of London — 2COR3 — position and weather

sailwx.info

Track history (hours):
 
Tides and Currents Weather Stations Pressure Air Temp Water Temp Dewpoint Dewpoint Depression Visibility Wind Speed Wind Dir Waves Ship Positions

Elena Of London

Last reported at 2016-May-29 21:33 UTC. Time now 2016-May-29 23:07 UTC.
Position N 43°44' E 007°30'.

Length 44 m; draft 5.2 m.

Type: Sailing vessel. MMSI: 235074534.

Date/timePositionNaut miles runAvg speedWind from/ knotsBaromVisibWave heightAir tempDewpointWater temp
2016-May-29 21:33N 43°44' E 007°30'3 2.0
2016-May-29 20:10N 43°44' E 007°26'0 0.0
2016-May-29 07:20N 43°45' E 007°26'0 0.0
2016-May-28 22:32N 43°44' E 007°26'0 0.0
2016-May-28 16:06N 43°45' E 007°26'0 0.0
2016-May-28 15:30N 43°45' E 007°26'0 0.0
2016-May-28 14:32N 43°45' E 007°26'0 0.0
2016-May-28 13:34N 43°45' E 007°26'1 1.4
2016-May-28 12:34N 43°43' E 007°25'0 0.5
2016-May-28 11:34N 43°43' E 007°26'1010.0
2016-May-28 10:33N 43°46' E 007°39'  
2016-May-24 16:13N 43°49' E 007°48'0 0.0
2016-May-22 16:13N 43°49' E 007°48'0 0.0
2016-May-21 10:31N 43°49' E 007°48'0 0.0
2016-May-20 19:13N 43°49' E 007°48'0 0.0
2016-May-20 18:19N 43°49' E 007°48'0 0.0
2016-May-20 17:25N 43°49' E 007°48'0 0.0
2016-May-20 16:31N 43°49' E 007°48'0 0.0
2016-May-20 15:13N 43°49' E 007°48'  
Track history (hours):
 
Tides and Currents Weather Stations Pressure Air Temp Water Temp Dewpoint Dewpoint Depression Visibility Wind Speed Wind Dir Waves Ship Positions

Elena Of London

Last reported at 2016-May-29 21:33 UTC. Time now 2016-May-29 23:07 UTC.
Position N 43°44' E 007°30'.

Length 44 m; draft 5.2 m.

Type: Sailing vessel. MMSI: 235074534.

Date/timePositionNaut miles runAvg speedWind from/ knotsBaromVisibWave heightAir tempDewpointWater temp
2016-May-29 21:33N 43°44' E 007°30'3 2.0
2016-May-29 20:10N 43°44' E 007°26'0 0.0
2016-May-29 07:20N 43°45' E 007°26'0 0.0
2016-May-28 22:32N 43°44' E 007°26'0 0.0
2016-May-28 16:06N 43°45' E 007°26'0 0.0
2016-May-28 15:30N 43°45' E 007°26'0 0.0
2016-May-28 14:32N 43°45' E 007°26'0 0.0
2016-May-28 13:34N 43°45' E 007°26'1 1.4
2016-May-28 12:34N 43°43' E 007°25'0 0.5
2016-May-28 11:34N 43°43' E 007°26'1010.0
2016-May-28 10:33N 43°46' E 007°39'  
2016-May-24 16:13N 43°49' E 007°48'0 0.0
2016-May-22 16:13N 43°49' E 007°48'0 0.0
2016-May-21 10:31N 43°49' E 007°48'0 0.0
2016-May-20 19:13N 43°49' E 007°48'0 0.0
2016-May-20 18:19N 43°49' E 007°48'0 0.0
2016-May-20 17:25N 43°49' E 007°48'0 0.0
2016-May-20 16:31N 43°49' E 007°48'0 0.0
2016-May-20 15:13N 43°49' E 007°48'  

Dump ship's entire track history